Time;durP1;ratioP1;P1;durP2;ratioP2;P2;SDS_P1;SDS_P2;PMS_P1;PMS_P2;Temp;Humidity;BMP_temperature;BMP_pressure;BME280_temperature;BME280_humidity;BME280_pressure;Samples;Min_cycle;Max_cycle;Signal;HPM_P1;HPM_P2
2023/10/05 00:01:07;;;;;;;8.70;3.90;;;;;;;22.42;37.73;101280.19;108005;1290;22003;-67
2023/10/05 00:03:37;;;;;;;6.60;3.50;;;;;;;22.40;37.61;101281.00;107811;1292;21992;-65
2023/10/05 00:06:13;;;;;;;12.30;4.10;;;;;;;22.38;37.79;101283.59;107835;1284;22005;-56
2023/10/05 00:08:49;;;;;;;9.80;3.70;;;;;;;22.38;37.74;101287.36;107847;1290;21998;-56
2023/10/05 00:11:23;;;;;;;10.40;3.60;;;;;;;22.37;37.67;101291.13;107786;1292;21998;-56
2023/10/05 00:13:50;;;;;;;6.70;3.60;;;;;;;22.37;37.77;101293.98;107927;1292;22004;-56
2023/10/05 00:16:20;;;;;;;7.20;3.20;;;;;;;22.36;37.76;101294.74;107813;1286;22072;-65
2023/10/05 00:18:47;;;;;;;9.70;3.70;;;;;;;22.33;37.76;101292.22;107815;1291;22005;-64
2023/10/05 00:21:15;;;;;;;7.10;3.30;;;;;;;22.29;37.56;101291.15;107827;1292;22005;-65
2023/10/05 00:23:41;;;;;;;7.60;3.30;;;;;;;22.28;37.74;101291.36;107820;1286;23160;-64
2023/10/05 00:26:07;;;;;;;7.30;2.70;;;;;;;22.26;37.62;101287.55;107758;1284;21994;-58
2023/10/05 00:28:35;;;;;;;11.70;3.60;;;;;;;22.23;37.49;101293.05;107779;1292;21996;-57
2023/10/05 00:31:01;;;;;;;7.50;3.20;;;;;;;22.19;37.61;101302.52;107748;1293;22030;-57
2023/10/05 00:33:27;;;;;;;7.70;3.00;;;;;;;22.15;37.65;101303.95;107781;1283;21993;-64
2023/10/05 00:35:53;;;;;;;7.10;3.10;;;;;;;22.11;37.53;101306.09;107742;1293;22002;-63
2023/10/05 00:38:19;;;;;;;7.90;3.00;;;;;;;22.07;37.61;101309.30;107780;1292;22005;-57
2023/10/05 00:40:56;;;;;;;9.20;3.80;;;;;;;22.03;37.61;101308.63;107070;1293;1003149;-57
2023/10/05 00:45:47;;;;;;;8.20;3.00;;;;;;;21.93;37.64;101302.07;107788;1288;22047;-64
2023/10/05 00:48:26;;;;;;;8.00;2.80;;;;;;;21.90;37.66;101298.83;107717;1293;22004;-64
2023/10/05 00:50:54;;;;;;;7.60;3.00;;;;;;;21.86;37.65;101301.50;107884;1293;21983;-56
2023/10/05 00:53:20;;;;;;;10.40;3.30;;;;;;;21.83;37.67;101301.29;107827;1284;23742;-64
2023/10/05 00:55:45;;;;;;;7.00;3.20;;;;;;;21.80;37.61;101295.19;107773;1290;21993;-57
2023/10/05 00:58:14;;;;;;;8.00;3.00;;;;;;;21.76;37.68;101290.55;107696;1290;21993;-64
2023/10/05 01:00:53;;;;;;;6.00;3.00;;;;;;;21.72;37.68;101288.22;107399;1292;21995;-57
2023/10/05 01:05:50;;;;;;;8.80;2.90;;;;;;;21.61;37.57;101289.36;107795;1293;22007;-63
2023/10/05 01:08:16;;;;;;;9.20;2.50;;;;;;;21.57;37.67;101291.17;107768;1293;21993;-64
2023/10/05 01:10:47;;;;;;;5.70;2.90;;;;;;;21.53;37.65;101297.91;106333;1293;1002312;-57
2023/10/05 01:13:42;;;;;;;7.60;2.60;;;;;;;21.50;37.65;101307.17;107832;1287;22001;-64
2023/10/05 01:16:19;;;;;;;7.20;2.90;;;;;;;21.45;37.71;101312.38;107650;1293;22001;-57
2023/10/05 01:18:45;;;;;;;5.60;2.60;;;;;;;21.42;37.75;101312.54;107773;1293;22004;-63
2023/10/05 01:21:11;;;;;;;9.70;3.00;;;;;;;21.38;37.70;101314.45;107782;1293;21994;-64
2023/10/05 01:23:41;;;;;;;9.20;3.10;;;;;;;21.36;37.77;101314.54;107802;1288;21994;-63
2023/10/05 01:26:13;;;;;;;6.70;2.70;;;;;;;21.34;37.81;101319.45;107751;1293;22000;-63
2023/10/05 01:28:41;;;;;;;5.10;2.40;;;;;;;21.31;37.79;101320.83;107780;1290;21991;-57
2023/10/05 01:31:21;;;;;;;5.20;2.70;;;;;;;21.29;37.81;101324.66;107802;1293;21997;-64
2023/10/05 01:33:47;;;;;;;6.10;2.80;;;;;;;21.28;37.80;101323.84;107741;1289;22003;-57
2023/10/05 01:36:19;;;;;;;7.20;2.40;;;;;;;21.25;37.83;101327.52;107804;1293;21994;-58
2023/10/05 01:38:45;;;;;;;8.00;2.90;;;;;;;21.22;37.88;101327.45;107789;1283;23857;-63
2023/10/05 01:41:11;;;;;;;5.90;2.80;;;;;;;21.20;37.92;101323.96;107752;1293;21990;-63
2023/10/05 01:43:42;;;;;;;7.60;2.70;;;;;;;21.19;37.87;101320.42;107859;1293;21999;-64
2023/10/05 01:46:10;;;;;;;10.10;2.80;;;;;;;21.19;37.79;101329.73;107785;1293;21995;-64
2023/10/05 01:48:37;;;;;;;6.10;2.50;;;;;;;21.17;37.84;101334.64;107848;1290;22052;-64
2023/10/05 01:51:20;;;;;;;6.80;2.50;;;;;;;21.12;37.85;101336.79;107777;1286;22003;-64
2023/10/05 01:53:45;;;;;;;6.70;2.70;;;;;;;21.06;37.85;101339.52;107754;1293;21999;-62
2023/10/05 01:56:17;;;;;;;7.00;2.50;;;;;;;20.98;37.81;101348.77;107763;1290;21993;-57
2023/10/05 01:58:43;;;;;;;7.30;2.50;;;;;;;20.89;37.84;101358.59;107772;1293;22019;-63
2023/10/05 02:01:10;;;;;;;5.70;2.70;;;;;;;20.77;37.95;101363.85;107744;1283;22032;-58
2023/10/05 02:03:36;;;;;;;5.30;2.60;;;;;;;20.64;37.92;101364.88;107780;1287;21991;-64
2023/10/05 02:06:06;;;;;;;4.70;2.50;;;;;;;20.52;38.04;101368.55;107772;1293;21998;-63
2023/10/05 02:08:35;;;;;;;5.70;2.20;;;;;;;20.39;38.11;101374.02;107803;1292;22052;-64
2023/10/05 02:11:04;;;;;;;5.30;2.70;;;;;;;20.28;38.20;101378.72;107756;1293;22007;-58
2023/10/05 02:13:32;;;;;;;9.00;2.70;;;;;;;20.21;38.31;101381.83;107764;1284;21995;-58
2023/10/05 02:15:59;;;;;;;8.60;2.40;;;;;;;20.13;38.44;101383.90;107766;1287;22176;-58
2023/10/05 02:18:26;;;;;;;5.80;2.60;;;;;;;20.06;38.47;101381.65;107743;1294;22016;-57
2023/10/05 02:20:56;;;;;;;8.80;3.00;;;;;;;20.03;38.49;101382.48;107785;1282;22006;-57
2023/10/05 02:25:54;;;;;;;7.10;2.60;;;;;;;19.91;38.58;101386.98;107787;1290;21996;-58
2023/10/05 02:28:25;;;;;;;8.30;2.70;;;;;;;19.85;38.63;101391.63;107760;1293;22042;-65
2023/10/05 02:30:54;;;;;;;8.00;3.40;;;;;;;19.82;38.61;101389.59;107730;1293;22002;-65
2023/10/05 02:33:27;;;;;;;10.20;2.60;;;;;;;19.79;38.59;101384.89;107749;1293;21998;-63
2023/10/05 02:35:57;;;;;;;11.00;2.90;;;;;;;19.77;38.66;101387.28;107765;1293;22006;-58
2023/10/05 02:38:23;;;;;;;8.20;2.50;;;;;;;19.77;38.59;101383.55;107758;1293;22004;-58
2023/10/05 02:40:55;;;;;;;6.20;2.50;;;;;;;19.75;38.58;101383.79;107768;1286;22028;-58
2023/10/05 02:43:29;;;;;;;6.80;2.70;;;;;;;19.73;38.49;101389.01;107719;1293;22038;-58
2023/10/05 02:46:08;;;;;;;8.00;2.40;;;;;;;19.74;38.52;101393.08;107712;1293;21996;-58
2023/10/05 02:48:35;;;;;;;7.20;2.30;;;;;;;19.73;38.63;101397.04;107700;1293;22181;-58
2023/10/05 02:51:05;;;;;;;5.60;2.70;;;;;;;19.71;38.60;101393.52;107743;1289;23049;-58
2023/10/05 02:54:10;;;;;;;9.80;2.40;;;;;;;19.71;38.52;101396.55;107716;1293;21980;-64
2023/10/05 02:56:29;;;;;;;6.60;2.50;;;;;;;19.68;38.51;101393.98;107672;1293;22057;-58
2023/10/05 02:59:00;;;;;;;7.20;2.70;;;;;;;19.65;38.67;101395.51;107730;1293;22042;-65
2023/10/05 03:01:26;;;;;;;8.40;2.80;;;;;;;19.61;38.64;101393.32;107706;1293;21998;-58
2023/10/05 03:03:52;;;;;;;7.00;2.50;;;;;;;19.59;38.67;101394.83;107812;1293;22003;-65
2023/10/05 03:06:18;;;;;;;7.70;2.30;;;;;;;19.57;38.68;101397.04;107718;1292;21996;-65
2023/10/05 03:08:52;;;;;;;7.90;2.10;;;;;;;19.53;38.63;101393.24;107735;1293;22009;-64
2023/10/05 03:11:18;;;;;;;6.20;2.50;;;;;;;19.50;38.64;101385.52;107735;1294;21996;-65
2023/10/05 03:13:45;;;;;;;7.10;2.60;;;;;;;19.50;38.66;101385.34;107705;1294;21999;-58
2023/10/05 03:16:11;;;;;;;8.50;2.80;;;;;;;19.50;38.62;101393.70;107749;1289;21992;-58
2023/10/05 03:18:43;;;;;;;9.50;2.80;;;;;;;19.46;38.63;101390.61;107833;1294;22061;-58
2023/10/05 03:21:13;;;;;;;7.50;2.60;;;;;;;19.42;38.67;101386.86;107755;1283;22049;-58
2023/10/05 03:23:41;;;;;;;9.00;2.50;;;;;;;19.38;38.71;101388.22;107716;1294;21995;-57
2023/10/05 03:26:11;;;;;;;7.30;2.60;;;;;;;19.35;38.72;101391.37;107746;1294;22000;-57
2023/10/05 03:28:37;;;;;;;9.70;2.50;;;;;;;19.30;38.73;101392.23;107723;1294;22003;-58
2023/10/05 03:31:12;;;;;;;7.50;2.50;;;;;;;19.25;38.66;101389.53;107747;1294;22050;-64
2023/10/05 03:33:39;;;;;;;6.30;2.30;;;;;;;19.19;38.74;101387.23;107461;1289;22001;-57
2023/10/05 03:36:14;;;;;;;6.00;2.10;;;;;;;19.15;38.80;101386.66;107742;1294;22019;-64
2023/10/05 03:38:42;;;;;;;6.80;2.50;;;;;;;19.11;38.74;101393.73;107728;1290;22049;-63
2023/10/05 03:41:15;;;;;;;7.70;2.40;;;;;;;19.04;38.78;101394.83;107724;1286;21998;-64
2023/10/05 03:43:43;;;;;;;6.50;2.40;;;;;;;18.98;38.91;101400.34;107710;1294;22003;-57
2023/10/05 03:46:09;;;;;;;5.40;2.50;;;;;;;18.93;38.88;101405.81;107766;1294;21997;-58
2023/10/05 03:48:41;;;;;;;5.70;2.70;;;;;;;18.87;38.85;101408.66;107716;1294;21959;-58
2023/10/05 03:51:16;;;;;;;8.20;2.40;;;;;;;18.80;38.82;101409.05;107764;1294;22000;-58
2023/10/05 03:53:53;;;;;;;7.60;2.80;;;;;;;18.74;38.95;101404.23;107704;1294;21997;-64
2023/10/05 03:56:20;;;;;;;10.20;2.60;;;;;;;18.70;39.05;101401.34;107739;1284;24794;-65
2023/10/05 03:58:48;;;;;;;6.80;2.90;;;;;;;18.65;39.10;101403.27;107731;1293;22006;-63
2023/10/05 04:01:15;;;;;;;10.60;2.90;;;;;;;18.60;39.07;101409.27;107734;1294;22072;-64
2023/10/05 04:03:43;;;;;;;17.20;3.60;;;;;;;18.56;39.27;101407.27;107691;1290;22011;-66
2023/10/05 04:06:28;;;;;;;7.90;2.90;;;;;;;18.52;39.29;101408.27;107780;1292;21988;-66
2023/10/05 04:08:57;;;;;;;8.00;2.50;;;;;;;18.49;39.24;101407.65;107705;1294;22013;-66
2023/10/05 04:11:26;;;;;;;13.70;3.30;;;;;;;18.47;39.34;101411.79;107750;1294;22002;-59
2023/10/05 04:13:55;;;;;;;7.90;2.50;;;;;;;18.46;39.42;101413.98;107750;1292;22005;-66
2023/10/05 04:16:22;;;;;;;8.30;2.80;;;;;;;18.42;39.37;101420.46;107763;1294;22009;-65
2023/10/05 04:18:52;;;;;;;7.60;3.00;;;;;;;18.35;39.40;101419.23;107767;1294;22004;-57
2023/10/05 04:21:23;;;;;;;14.00;3.60;;;;;;;18.29;39.43;101420.13;107760;1286;22945;-57
2023/10/05 04:23:52;;;;;;;9.10;3.00;;;;;;;18.24;39.59;101419.20;107726;1289;22008;-64
2023/10/05 04:26:21;;;;;;;10.30;3.00;;;;;;;18.23;39.68;101418.13;107735;1283;22003;-57
2023/10/05 04:28:57;;;;;;;6.30;3.10;;;;;;;18.26;39.70;101423.75;107745;1292;21996;-57
2023/10/05 04:31:25;;;;;;;12.60;3.20;;;;;;;18.26;39.62;101429.08;107708;1288;22036;-65
2023/10/05 04:33:51;;;;;;;7.40;2.80;;;;;;;18.25;39.64;101432.12;107719;1294;22031;-57
2023/10/05 04:36:18;;;;;;;6.90;3.30;;;;;;;18.25;39.75;101435.48;107737;1289;22050;-58
2023/10/05 04:38:44;;;;;;;7.60;3.00;;;;;;;18.27;39.79;101438.45;107756;1294;22253;-66
2023/10/05 04:41:13;;;;;;;8.40;2.60;;;;;;;18.32;39.97;101441.91;107741;1294;22258;-65
2023/10/05 04:43:43;;;;;;;10.10;3.10;;;;;;;18.36;39.96;101444.80;107746;1294;21999;-59
2023/10/05 04:46:09;;;;;;;10.80;2.50;;;;;;;18.39;39.99;101448.98;107728;1293;21987;-57
2023/10/05 04:48:38;;;;;;;6.40;2.60;;;;;;;18.42;39.92;101450.84;107702;1294;22001;-58
2023/10/05 04:51:06;;;;;;;7.30;2.50;;;;;;;18.47;40.06;101451.77;107722;1294;22003;-58
2023/10/05 04:53:32;;;;;;;6.90;2.20;;;;;;;18.49;39.94;101449.77;107751;1287;22007;-57
2023/10/05 04:56:12;;;;;;;7.30;2.80;;;;;;;18.51;40.03;101449.00;107723;1294;22004;-64
2023/10/05 04:59:00;;;;;;;7.30;3.20;;;;;;;18.55;40.00;101448.69;107749;1294;22011;-57
2023/10/05 05:01:29;;;;;;;5.30;2.60;;;;;;;18.62;40.06;101452.25;107693;1294;21995;-57
2023/10/05 05:03:56;;;;;;;16.80;2.90;;;;;;;18.69;40.08;101459.50;107702;1294;22008;-58
2023/10/05 05:06:25;;;;;;;10.60;2.50;;;;;;;18.74;39.99;101460.80;107732;1294;22007;-64
2023/10/05 05:08:53;;;;;;;7.60;3.50;;;;;;;18.81;40.16;101466.09;107734;1294;21995;-59
2023/10/05 05:11:19;;;;;;;26.60;4.30;;;;;;;18.93;40.15;101472.51;107718;1294;22463;-58
2023/10/05 05:13:48;;;;;;;14.10;3.70;;;;;;;19.07;40.08;101470.86;106264;1294;1003135;-65
2023/10/05 05:16:17;;;;;;;12.90;3.30;;;;;;;19.18;39.99;101467.48;107513;1294;22038;-57
2023/10/05 05:18:43;;;;;;;8.70;2.80;;;;;;;19.31;39.85;101469.24;107727;1294;22016;-57
2023/10/05 05:21:08;;;;;;;11.70;3.60;;;;;;;19.42;39.83;101471.91;107698;1294;22008;-59
2023/10/05 05:23:35;;;;;;;5.20;2.30;;;;;;;19.53;39.75;101471.55;107746;1294;21998;-64
2023/10/05 05:26:03;;;;;;;4.70;2.80;;;;;;;19.63;39.73;101470.89;107756;1294;21996;-62
2023/10/05 05:28:30;;;;;;;7.20;2.60;;;;;;;19.71;39.64;101474.53;107783;1294;21998;-57
2023/10/05 05:31:06;;;;;;;9.40;2.80;;;;;;;19.82;39.53;101481.11;107733;1294;22020;-64
2023/10/05 05:33:36;;;;;;;7.90;3.10;;;;;;;19.93;39.49;101481.49;107710;1293;21999;-57
2023/10/05 05:36:11;;;;;;;5.40;2.40;;;;;;;20.03;39.42;101481.01;107717;1293;22004;-64
2023/10/05 05:38:40;;;;;;;8.30;2.30;;;;;;;20.12;39.28;101485.16;107743;1293;24501;-58
2023/10/05 05:41:12;;;;;;;6.00;2.30;;;;;;;20.20;39.14;101488.26;107707;1293;22058;-62
2023/10/05 05:43:41;;;;;;;3.90;2.10;;;;;;;20.30;39.20;101484.52;107714;1293;22008;-58
2023/10/05 05:46:12;;;;;;;6.40;2.60;;;;;;;20.41;39.11;101489.11;107738;1293;22004;-63
2023/10/05 05:48:38;;;;;;;;;;;;;;;20.51;39.00;101489.81;107705;1294;21985;-63
2023/10/05 05:51:06;;;;;;;9.20;2.80;;;;;;;20.62;39.00;101490.14;107693;1294;22007;-58
2023/10/05 05:53:33;;;;;;;7.80;2.60;;;;;;;20.74;38.89;101492.73;107719;1294;22015;-59
2023/10/05 05:56:03;;;;;;;6.00;2.20;;;;;;;20.86;38.77;101493.39;107752;1294;21996;-64
2023/10/05 05:58:29;;;;;;;9.50;2.90;;;;;;;20.99;38.68;101496.10;107689;1294;22798;-58
2023/10/05 06:00:57;;;;;;;7.40;2.30;;;;;;;21.12;38.54;101496.30;107006;1294;1003261;-59
2023/10/05 06:03:24;;;;;;;4.60;2.10;;;;;;;21.25;38.47;101496.36;107747;1294;21998;-63
2023/10/05 06:05:51;;;;;;;9.00;2.90;;;;;;;21.39;38.30;101498.84;107767;1293;21995;-59
2023/10/05 06:08:17;;;;;;;6.90;2.50;;;;;;;21.52;38.28;101502.25;107769;1294;22030;-58
2023/10/05 06:10:46;;;;;;;9.00;2.80;;;;;;;21.64;38.19;101506.09;107804;1294;21994;-63
2023/10/05 06:13:11;;;;;;;6.30;2.40;;;;;;;21.74;38.11;101504.77;107802;1294;22006;-58
2023/10/05 06:15:38;;;;;;;5.80;2.40;;;;;;;21.89;37.96;101504.35;107698;1294;21996;-64
2023/10/05 06:18:03;;;;;;;7.60;2.40;;;;;;;22.00;37.83;101506.73;107744;1294;22011;-65
2023/10/05 06:20:31;;;;;;;6.90;2.20;;;;;;;22.10;37.65;101502.20;107709;1294;22010;-59
2023/10/05 06:22:57;;;;;;;7.30;2.70;;;;;;;22.21;37.51;101501.89;107778;1294;21996;-65
2023/10/05 06:25:23;;;;;;;4.60;2.20;;;;;;;22.29;37.50;101504.79;107753;1294;22060;-58
2023/10/05 06:27:49;;;;;;;7.70;2.60;;;;;;;22.40;37.33;101507.54;107757;1294;22044;-57
2023/10/05 06:30:14;;;;;;;5.20;2.50;;;;;;;22.51;37.09;101506.89;107698;1294;22007;-65
2023/10/05 06:32:43;;;;;;;7.10;2.60;;;;;;;22.65;36.95;101511.98;107732;1294;21993;-63
2023/10/05 06:35:09;;;;;;;8.80;2.80;;;;;;;22.77;36.79;101510.59;107733;1293;21995;-58
2023/10/05 06:37:44;;;;;;;6.90;2.80;;;;;;;22.85;36.89;101514.83;107871;1293;22011;-58
2023/10/05 06:40:14;;;;;;;7.50;3.00;;;;;;;22.99;37.00;101518.14;107938;1293;21992;-64
2023/10/05 06:42:41;;;;;;;4.50;2.90;;;;;;;23.12;36.87;101515.41;107859;1293;22060;-64
2023/10/05 06:45:11;;;;;;;5.20;2.80;;;;;;;23.22;36.71;101513.86;107889;1293;21999;-58
2023/10/05 06:47:37;;;;;;;7.90;2.80;;;;;;;23.35;36.71;101509.52;107838;1293;22007;-58
2023/10/05 06:50:11;;;;;;;5.30;2.70;;;;;;;23.48;36.52;101510.67;107873;1293;22063;-64
2023/10/05 06:52:43;;;;;;;8.70;3.50;;;;;;;23.65;36.44;101511.44;107742;1293;21998;-64
2023/10/05 06:55:13;;;;;;;6.00;2.80;;;;;;;23.82;36.24;101518.14;107867;1293;21990;-64
2023/10/05 06:57:40;;;;;;;11.70;3.00;;;;;;;23.97;36.14;101524.79;107767;1293;22055;-58
2023/10/05 07:00:16;;;;;;;5.90;2.90;;;;;;;24.08;36.09;101524.55;107868;1293;21999;-59
2023/10/05 07:02:45;;;;;;;9.10;3.10;;;;;;;24.22;36.04;101523.35;107765;1292;22001;-64
2023/10/05 07:05:11;;;;;;;5.40;2.70;;;;;;;24.41;35.96;101525.20;107801;1293;21998;-63
2023/10/05 07:07:37;;;;;;;7.30;2.90;;;;;;;24.59;35.89;101526.96;107771;1293;22036;-64
2023/10/05 07:10:03;;;;;;;6.90;3.10;;;;;;;24.74;35.73;101527.45;107757;1293;22015;-63
2023/10/05 07:12:38;;;;;;;6.60;3.10;;;;;;;24.88;35.63;101528.84;107806;1293;22006;-64
2023/10/05 07:15:08;;;;;;;12.60;3.60;;;;;;;25.11;35.71;101527.06;107796;1293;22039;-64
2023/10/05 07:17:34;;;;;;;9.70;3.10;;;;;;;25.35;35.46;101527.91;107801;1293;21978;-64
2023/10/05 07:19:59;;;;;;;5.10;2.70;;;;;;;25.50;35.17;101529.61;107791;1293;22014;-64
2023/10/05 07:22:25;;;;;;;9.40;2.90;;;;;;;25.57;35.01;101524.52;107680;1294;22005;-58
2023/10/05 07:24:50;;;;;;;8.10;2.70;;;;;;;25.67;34.94;101525.05;107684;1294;22010;-58
2023/10/05 07:27:17;;;;;;;64.70;8.10;;;;;;;25.81;34.63;101523.85;107725;1293;22005;-58
2023/10/05 07:29:45;;;;;;;8.70;3.00;;;;;;;25.92;34.70;101523.23;107800;1293;22001;-65
2023/10/05 07:32:12;;;;;;;8.50;3.00;;;;;;;25.98;34.48;101518.55;107820;1292;22016;-63
2023/10/05 07:34:39;;;;;;;11.40;2.80;;;;;;;26.00;34.49;101517.56;107783;1293;22009;-59
2023/10/05 07:37:06;;;;;;;8.00;2.80;;;;;;;26.06;34.31;101515.72;107813;1293;22207;-66
2023/10/05 07:39:32;;;;;;;9.60;2.70;;;;;;;26.15;34.26;101513.95;107821;1293;22011;-65
2023/10/05 07:41:59;;;;;;;4.70;2.20;;;;;;;26.24;34.06;101514.17;107771;1293;22017;-64
2023/10/05 07:44:29;;;;;;;8.00;2.60;;;;;;;26.33;34.08;101510.02;107759;1293;21993;-64
2023/10/05 07:46:55;;;;;;;9.10;2.50;;;;;;;26.47;34.06;101515.30;107787;1293;22001;-60
2023/10/05 07:49:21;;;;;;;5.40;2.30;;;;;;;26.58;33.80;101516.40;107781;1293;22067;-65
2023/10/05 07:51:46;;;;;;;6.10;2.50;;;;;;;26.79;33.78;101514.58;107791;1293;22182;-59
2023/10/05 07:54:12;;;;;;;4.90;2.30;;;;;;;27.04;33.74;101514.13;107786;1293;22036;-65
2023/10/05 07:56:37;;;;;;;4.80;2.30;;;;;;;27.22;33.49;101510.80;107756;1293;22001;-59
2023/10/05 07:59:04;;;;;;;6.80;2.30;;;;;;;27.40;33.20;101517.91;107744;1293;22001;-65
2023/10/05 08:01:29;;;;;;;6.30;2.00;;;;;;;27.51;32.61;101515.84;107712;1293;22001;-65
2023/10/05 08:03:55;;;;;;;6.00;2.00;;;;;;;27.51;32.05;101518.14;107763;1293;21995;-59
2023/10/05 08:06:20;;;;;;;4.40;1.90;;;;;;;27.47;32.18;101519.10;107761;1293;21996;-58
2023/10/05 08:08:47;;;;;;;5.30;2.60;;;;;;;27.56;32.50;101515.45;107743;1293;21998;-59
2023/10/05 08:11:13;;;;;;;4.80;1.80;;;;;;;27.73;32.37;101519.56;107759;1293;22002;-60
2023/10/05 08:13:42;;;;;;;4.10;2.10;;;;;;;27.80;31.71;101513.52;107798;1293;22055;-64
2023/10/05 08:16:10;;;;;;;5.10;2.00;;;;;;;27.87;31.45;101514.66;107778;1292;22090;-65
2023/10/05 08:18:36;;;;;;;4.80;1.90;;;;;;;27.94;31.35;101514.02;107793;1293;22463;-59
2023/10/05 08:21:02;;;;;;;6.20;2.00;;;;;;;27.98;31.14;101511.41;107762;1293;21999;-64
2023/10/05 08:23:31;;;;;;;4.40;1.90;;;;;;;28.09;31.06;101508.33;107770;1293;21998;-59
2023/10/05 08:25:57;;;;;;;4.30;1.90;;;;;;;28.19;30.76;101509.27;107746;1293;22883;-64
2023/10/05 08:28:24;;;;;;;3.60;1.50;;;;;;;28.25;30.88;101506.19;107781;1293;21960;-59
2023/10/05 08:31:05;;;;;;;3.70;2.10;;;;;;;28.32;30.91;101501.91;107811;1293;22009;-60
2023/10/05 08:33:34;;;;;;;6.50;2.40;;;;;;;28.46;30.98;101501.14;107779;1292;22037;-59
2023/10/05 08:36:06;;;;;;;9.40;2.50;;;;;;;28.57;30.34;101497.10;107807;1293;22004;-65
2023/10/05 08:38:34;;;;;;;3.90;2.20;;;;;;;28.65;30.41;101496.34;107834;1293;24359;-65
2023/10/05 08:41:02;;;;;;;6.30;2.80;;;;;;;28.80;30.45;101495.81;107755;1293;21994;-59
2023/10/05 08:43:28;;;;;;;5.00;2.30;;;;;;;29.01;30.41;101494.89;107775;1293;22104;-59
2023/10/05 08:45:53;;;;;;;4.00;2.00;;;;;;;29.17;30.14;101495.84;107774;1293;22034;-60
2023/10/05 08:48:30;;;;;;;6.50;2.20;;;;;;;29.29;29.63;101496.83;107410;1293;22008;-64
2023/10/05 08:51:04;;;;;;;6.30;2.00;;;;;;;29.35;29.65;101493.82;107765;1293;21998;-58
2023/10/05 08:53:30;;;;;;;7.50;2.40;;;;;;;29.48;29.88;101493.61;107768;1293;22006;-65
2023/10/05 08:55:58;;;;;;;7.20;2.20;;;;;;;29.56;29.44;101490.89;107786;1293;22011;-65
2023/10/05 08:58:24;;;;;;;6.00;2.90;;;;;;;29.65;29.08;101492.67;107771;1293;22034;-64
2023/10/05 09:00:49;;;;;;;3.30;1.80;;;;;;;29.64;28.83;101488.95;107662;1293;21998;-59
2023/10/05 09:03:30;;;;;;;4.00;1.70;;;;;;;29.51;28.99;101482.02;107788;1293;23732;-65
2023/10/05 09:06:13;;;;;;;;;;;;;;;29.48;29.12;101479.19;107830;1293;21978;-65
2023/10/05 09:11:31;;;;;;;5.70;1.90;;;;;;;29.64;28.46;101481.05;107813;1292;21997;-59
2023/10/05 09:14:13;;;;;;;5.80;1.80;;;;;;;29.68;28.60;101480.52;107809;1293;21998;-64
2023/10/05 09:16:47;;;;;;;5.90;2.60;;;;;;;29.72;28.75;101477.39;107799;1293;21999;-64
2023/10/05 09:19:17;;;;;;;4.80;1.90;;;;;;;29.77;28.19;101473.91;107811;1293;21999;-66
2023/10/05 09:24:24;;;;;;;5.30;2.10;;;;;;;30.08;28.45;101471.02;107761;1293;22000;-59
2023/10/05 09:27:17;;;;;;;5.00;1.70;;;;;;;30.17;28.22;101465.27;107798;1292;22465;-65
2023/10/05 09:29:43;;;;;;;4.70;1.80;;;;;;;30.24;27.97;101464.85;107751;1293;22005;-65
2023/10/05 09:32:25;;;;;;;3.90;1.70;;;;;;;30.39;28.10;101461.73;107786;1293;22007;-65
2023/10/05 09:34:55;;;;;;;3.70;1.40;;;;;;;30.63;28.01;101457.36;107831;1292;21999;-60
2023/10/05 09:37:24;;;;;;;6.00;1.90;;;;;;;30.86;27.68;101454.52;107760;1293;22014;-65
2023/10/05 09:39:53;;;;;;;4.90;1.60;;;;;;;30.94;27.10;101450.77;107825;1293;21997;-64
2023/10/05 09:42:26;;;;;;;5.40;1.60;;;;;;;30.98;27.22;101451.36;107912;1289;21994;-64
2023/10/05 09:44:57;;;;;;;5.10;1.60;;;;;;;31.03;27.24;101447.16;107938;1289;22006;-60
2023/10/05 09:47:25;;;;;;;8.40;1.70;;;;;;;31.11;27.05;101443.64;107913;1289;21998;-59
2023/10/05 09:49:56;;;;;;;5.20;1.90;;;;;;;31.21;26.86;101435.05;107960;1289;21993;-60
2023/10/05 09:52:24;;;;;;;4.90;1.80;;;;;;;31.47;27.21;101432.51;107886;1289;22046;-65
2023/10/05 09:54:50;;;;;;;4.90;2.00;;;;;;;31.67;26.48;101432.66;107956;1289;22007;-64
2023/10/05 09:57:20;;;;;;;3.70;1.80;;;;;;;31.58;26.15;101431.93;107915;1289;22249;-59
2023/10/05 09:59:59;;;;;;;6.00;2.00;;;;;;;31.52;26.01;101429.74;107929;1286;24314;-60
2023/10/05 10:02:34;;;;;;;4.70;1.70;;;;;;;31.44;25.75;101424.77;107865;1289;21998;-59
2023/10/05 10:05:04;;;;;;;4.70;2.10;;;;;;;31.36;25.90;101420.95;107789;1289;21998;-65
2023/10/05 10:07:32;;;;;;;3.80;1.50;;;;;;;31.32;25.75;101420.73;107879;1289;21993;-59
2023/10/05 10:09:58;;;;;;;6.30;1.70;;;;;;;31.27;25.78;101416.95;107815;1289;22012;-65
2023/10/05 10:12:38;;;;;;;4.50;1.50;;;;;;;31.46;26.13;101416.48;107638;1289;22447;-64
2023/10/05 10:15:24;;;;;;;2.70;1.40;;;;;;;31.74;26.13;101410.15;107904;1289;21993;-60
2023/10/05 10:18:03;;;;;;;5.30;1.80;;;;;;;31.98;26.05;101403.15;107908;1289;22011;-60
2023/10/05 10:20:35;;;;;;;6.40;1.80;;;;;;;32.20;25.88;101402.13;107695;1289;22011;-60
2023/10/05 10:23:21;;;;;;;4.50;1.60;;;;;;;32.24;25.34;101395.27;107913;1289;21994;-59
2023/10/05 10:25:50;;;;;;;3.70;1.20;;;;;;;31.96;25.33;101391.88;107944;1289;21991;-65
2023/10/05 10:28:35;;;;;;;5.20;1.60;;;;;;;31.86;25.46;101386.96;107959;1289;22030;-65
2023/10/05 10:31:30;;;;;;;3.40;1.90;;;;;;;31.92;25.34;101387.21;107945;1289;22054;-65
2023/10/05 10:34:20;;;;;;;6.70;1.70;;;;;;;32.01;25.43;101381.48;107859;1289;22015;-66
2023/10/05 10:36:46;;;;;;;6.60;1.50;;;;;;;32.07;24.95;101377.89;107890;1289;22357;-59
2023/10/05 10:39:23;;;;;;;3.40;1.50;;;;;;;31.91;24.82;101375.98;107937;1283;21998;-60
2023/10/05 10:42:04;;;;;;;4.00;1.50;;;;;;;31.94;24.93;101371.93;107899;1289;21994;-65
2023/10/05 10:47:17;;;;;;;11.40;2.00;;;;;;;32.36;25.09;101358.49;107880;1289;22026;-59
2023/10/05 10:50:11;;;;;;;4.70;1.50;;;;;;;32.64;24.90;101356.64;107921;1289;21994;-61
2023/10/05 10:52:37;;;;;;;3.70;1.70;;;;;;;32.70;24.57;101348.52;107640;1289;22003;-60
2023/10/05 10:55:04;;;;;;;5.30;1.70;;;;;;;32.67;24.14;101347.30;107889;1289;21985;-60
2023/10/05 10:57:30;;;;;;;3.40;1.50;;;;;;;32.65;24.35;101340.97;107879;1289;21993;-64
2023/10/05 11:00:37;;;;;;;4.20;1.70;;;;;;;32.62;24.36;101331.98;107903;1283;21994;-65
2023/10/05 11:02:42;;;;;;;3.10;1.40;;;;;;;32.80;24.47;101331.98;107948;1289;21994;-65
2023/10/05 11:05:15;;;;;;;3.50;1.50;;;;;;;33.02;24.42;101329.27;107891;1289;22009;-66
2023/10/05 11:07:42;;;;;;;3.50;1.60;;;;;;;33.25;24.31;101323.63;107890;1289;22005;-59
2023/10/05 11:10:18;;;;;;;4.50;1.40;;;;;;;33.36;24.25;101323.35;107995;1289;21998;-60
2023/10/05 11:12:53;;;;;;;4.40;1.60;;;;;;;33.50;24.25;101317.90;107896;1289;21977;-66
2023/10/05 11:15:28;;;;;;;5.80;1.80;;;;;;;33.63;23.95;101314.99;107876;1289;22028;-65
2023/10/05 11:17:58;;;;;;;12.80;3.30;;;;;;;33.54;23.49;101314.77;107893;1289;21996;-66
2023/10/05 11:20:33;;;;;;;;;;;;;;;33.38;23.74;101315.41;107896;1289;21982;-65
2023/10/05 11:23:03;;;;;;;8.10;4.20;;;;;;;33.42;23.87;101308.64;107693;1290;22213;-60
2023/10/05 11:25:34;;;;;;;9.90;2.40;;;;;;;33.56;23.67;101307.14;107718;1290;22030;-65
2023/10/05 11:28:00;;;;;;;;;;;;;;;33.48;23.11;101303.71;107598;1290;171737;-60
2023/10/05 11:30:39;;;;;;;20.20;3.50;;;;;;;33.31;23.27;101298.15;107678;1290;21996;-65
2023/10/05 11:33:05;;;;;;;8.10;2.30;;;;;;;33.43;23.51;101293.96;107729;1290;22469;-60
2023/10/05 11:35:42;;;;;;;5.20;1.90;;;;;;;33.65;23.26;101292.41;107663;1290;22033;-60
2023/10/05 11:38:14;;;;;;;6.80;2.00;;;;;;;33.81;23.21;101286.55;107728;1290;22013;-59
2023/10/05 11:40:48;;;;;;;6.70;2.20;;;;;;;33.84;23.09;101283.55;107725;1290;22007;-59
2023/10/05 11:43:15;;;;;;;6.50;1.80;;;;;;;33.81;23.44;101282.68;107688;1290;21993;-65
2023/10/05 11:46:00;;;;;;;5.00;1.70;;;;;;;33.90;23.45;101278.01;107850;1290;22004;-66